Time;durP1;ratioP1;P1;durP2;ratioP2;P2;SDS_P1;SDS_P2;PMS_P1;PMS_P2;Temp;Humidity;BMP_temperature;BMP_pressure;BME280_temperature;BME280_humidity;BME280_pressure;Samples;Min_cycle;Max_cycle;Signal;HPM_P1;HPM_P2
2020/12/30 00:01:41;;;;;;;30.80;14.48;;;3.80;99.90;;;;;;5049585;28;20488;-58
2020/12/30 00:04:07;;;;;;;26.65;12.55;;;3.80;99.90;;;;;;5047769;28;20412;-55
2020/12/30 00:06:33;;;;;;;32.22;15.38;;;3.80;99.90;;;;;;5047967;28;20071;-58
2020/12/30 00:08:59;;;;;;;29.35;13.30;;;3.80;99.90;;;;;;5047736;28;20025;-56
2020/12/30 00:11:24;;;;;;;28.00;12.30;;;3.80;99.90;;;;;;5044444;28;20043;-58
2020/12/30 00:13:50;;;;;;;31.80;13.00;;;3.80;99.90;;;;;;5049126;28;20024;-53
2020/12/30 00:16:16;;;;;;;33.05;12.32;;;3.80;99.90;;;;;;5048827;28;20036;-53
2020/12/30 00:18:41;;;;;;;28.75;14.00;;;3.70;99.90;;;;;;5047430;28;20033;-56
2020/12/30 00:21:07;;;;;;;30.52;12.88;;;3.70;99.90;;;;;;5049406;28;20075;-54
2020/12/30 00:23:33;;;;;;;28.45;12.70;;;3.70;99.90;;;;;;5047796;28;20029;-60
2020/12/30 00:25:58;;;;;;;28.30;12.95;;;3.70;99.90;;;;;;5049022;28;20029;-57
2020/12/30 00:28:24;;;;;;;30.67;13.25;;;3.70;99.90;;;;;;5048070;28;20100;-53
2020/12/30 00:30:49;;;;;;;28.60;13.75;;;3.60;99.90;;;;;;5048911;28;20048;-55
2020/12/30 00:33:15;;;;;;;26.48;12.25;;;3.50;99.90;;;;;;5049002;28;20021;-57
2020/12/30 00:35:41;;;;;;;27.40;13.23;;;3.50;99.90;;;;;;5048893;28;20445;-58
2020/12/30 00:38:07;;;;;;;24.98;12.45;;;3.40;99.90;;;;;;5048252;28;20040;-54
2020/12/30 00:40:33;;;;;;;28.23;14.35;;;3.40;99.90;;;;;;5052258;28;20058;-59
2020/12/30 00:43:02;;;;;;;28.38;13.55;;;3.40;99.90;;;;;;5050300;28;20104;-58
2020/12/30 00:45:27;;;;;;;;;;;3.40;99.90;;;;;;5051535;28;20341;-55
2020/12/30 00:47:53;;;;;;;29.25;13.27;;;3.30;99.90;;;;;;5050837;28;19908;-59
2020/12/30 00:50:19;;;;;;;29.80;13.52;;;3.30;99.90;;;;;;5050376;28;20029;-57
2020/12/30 00:52:44;;;;;;;30.90;13.63;;;3.40;99.90;;;;;;5051160;28;20491;-57
2020/12/30 00:55:13;;;;;;;27.20;13.13;;;3.40;99.90;;;;;;5051868;28;20029;-58
2020/12/30 00:57:39;;;;;;;30.33;12.77;;;3.50;99.90;;;;;;5050423;28;20021;-57
2020/12/30 01:00:05;;;;;;;29.27;12.52;;;3.50;99.90;;;;;;5051707;28;20036;-59
2020/12/30 01:02:30;;;;;;;27.38;12.02;;;3.50;99.90;;;;;;5050929;28;20512;-54
2020/12/30 01:04:56;;;;;;;27.20;12.75;;;3.60;99.90;;;;;;5051967;28;20031;-57
2020/12/30 01:07:21;;;;;;;26.25;12.63;;;3.70;99.90;;;;;;5052068;28;20021;-58
2020/12/30 01:09:47;;;;;;;28.23;14.02;;;3.70;99.90;;;;;;5051626;28;20025;-59
2020/12/30 01:12:13;;;;;;;26.55;13.30;;;3.70;99.90;;;;;;5051132;28;20367;-55
2020/12/30 01:14:38;;;;;;;27.63;12.43;;;3.70;99.90;;;;;;5050582;28;20028;-54
2020/12/30 01:17:04;;;;;;;26.42;12.40;;;3.70;99.90;;;;;;5050403;28;20120;-59
2020/12/30 01:19:30;;;;;;;25.27;11.93;;;3.70;99.90;;;;;;5051313;28;20033;-58
2020/12/30 01:21:55;;;;;;;30.05;13.13;;;3.70;99.90;;;;;;5050409;28;20123;-59
2020/12/30 01:24:21;;;;;;;27.52;12.40;;;3.80;99.90;;;;;;5051772;28;20033;-58
2020/12/30 01:26:47;;;;;;;27.85;13.18;;;3.70;99.90;;;;;;5050397;28;20496;-54
2020/12/30 01:29:13;;;;;;;39.33;13.07;;;3.70;99.90;;;;;;5051211;28;20021;-57
2020/12/30 01:31:40;;;;;;;25.30;11.52;;;3.70;99.90;;;;;;5050223;28;20028;-57
2020/12/30 01:34:06;;;;;;;24.80;11.63;;;3.70;99.90;;;;;;5051698;28;20028;-59
2020/12/30 01:36:32;;;;;;;38.20;15.32;;;3.70;99.90;;;;;;5051548;28;20025;-60
2020/12/30 01:38:59;;;;;;;30.23;15.02;;;3.70;99.90;;;;;;5051058;28;20101;-59
2020/12/30 01:41:25;;;;;;;31.42;12.65;;;3.60;99.90;;;;;;5050423;28;20025;-60
2020/12/30 01:44:04;;;;;;;28.38;12.75;;;3.60;99.90;;;;;;5050584;28;20040;-59
2020/12/30 01:46:33;;;;;;;26.73;12.10;;;3.50;99.90;;;;;;5051665;28;20029;-59
2020/12/30 01:49:01;;;;;;;30.85;12.70;;;3.40;99.90;;;;;;5049863;28;20021;-58
2020/12/30 01:51:26;;;;;;;30.05;15.07;;;3.40;99.90;;;;;;5051700;28;20526;-58
2020/12/30 01:53:52;;;;;;;32.25;13.95;;;3.30;99.90;;;;;;5051596;28;20029;-58
2020/12/30 01:56:18;;;;;;;28.25;12.02;;;3.40;99.90;;;;;;5051423;28;20021;-57
2020/12/30 01:58:44;;;;;;;31.50;15.70;;;3.40;99.90;;;;;;5049509;28;20036;-58
2020/12/30 02:01:11;;;;;;;31.77;13.27;;;3.30;99.90;;;;;;5050335;28;20051;-58
2020/12/30 02:03:38;;;;;;;30.00;14.23;;;3.20;99.90;;;;;;5051373;28;20032;-56
2020/12/30 02:06:03;;;;;;;33.55;15.02;;;3.10;99.90;;;;;;5051292;28;20028;-59
2020/12/30 02:08:29;;;;;;;29.45;14.65;;;3.00;99.90;;;;;;5051880;28;20111;-57
2020/12/30 02:10:56;;;;;;;34.80;16.67;;;2.90;99.90;;;;;;5054259;28;20028;-58
2020/12/30 02:13:22;;;;;;;34.63;17.55;;;2.90;99.90;;;;;;5054072;28;20021;-57
2020/12/30 02:15:48;;;;;;;34.97;14.10;;;2.80;99.90;;;;;;5055280;28;20108;-57
2020/12/30 02:18:13;;;;;;;32.25;15.27;;;2.80;99.90;;;;;;5053662;28;20539;-56
2020/12/30 02:20:39;;;;;;;31.73;15.50;;;2.70;99.90;;;;;;5054868;28;20099;-56
2020/12/30 02:23:09;;;;;;;34.35;13.63;;;2.60;99.90;;;;;;5053952;28;20017;-56
2020/12/30 02:25:35;;;;;;;33.17;15.38;;;2.70;99.90;;;;;;5055082;28;20071;-57
2020/12/30 02:28:01;;;;;;;36.15;16.02;;;2.60;99.90;;;;;;5054909;28;20399;-56
2020/12/30 02:30:29;;;;;;;35.42;16.27;;;2.50;99.90;;;;;;5054785;28;20096;-59
2020/12/30 02:32:54;;;;;;;33.47;14.50;;;2.50;99.90;;;;;;5055060;28;20021;-51
2020/12/30 02:35:24;;;;;;;33.25;15.20;;;2.30;99.90;;;;;;5054936;28;20059;-60
2020/12/30 02:37:51;;;;;;;33.47;16.35;;;2.40;99.90;;;;;;5054841;28;20032;-52
2020/12/30 02:40:17;;;;;;;32.72;16.58;;;2.40;99.90;;;;;;5053080;28;20025;-56
2020/12/30 02:42:43;;;;;;;33.22;14.18;;;2.40;99.90;;;;;;5053895;28;20040;-55
2020/12/30 02:45:10;;;;;;;35.17;16.63;;;2.50;99.90;;;;;;5053690;28;20021;-56
2020/12/30 02:47:36;;;;;;;36.78;15.88;;;2.40;99.90;;;;;;5054671;28;20506;-56
2020/12/30 02:50:03;;;;;;;34.15;15.40;;;2.40;99.90;;;;;;5052925;28;20112;-55
2020/12/30 02:52:29;;;;;;;31.67;15.10;;;2.30;99.90;;;;;;5053412;28;20503;-57
2020/12/30 02:54:55;;;;;;;34.28;15.68;;;2.30;99.90;;;;;;5053239;28;20017;-56
2020/12/30 02:57:21;;;;;;;32.95;15.75;;;2.20;99.90;;;;;;5053343;28;20033;-53
2020/12/30 02:59:46;;;;;;;35.97;16.13;;;2.20;99.90;;;;;;5052560;28;20036;-56
2020/12/30 03:02:13;;;;;;;32.80;15.30;;;2.20;99.90;;;;;;5053022;28;20056;-57
2020/12/30 03:04:38;;;;;;;30.35;14.93;;;2.10;99.90;;;;;;5054538;28;20131;-57
2020/12/30 03:07:04;;;;;;;36.38;16.17;;;2.10;99.90;;;;;;5054204;28;20043;-57
2020/12/30 03:09:30;;;;;;;30.70;14.57;;;2.10;99.90;;;;;;5053582;28;20096;-58
2020/12/30 03:11:56;;;;;;;37.75;16.13;;;2.10;99.90;;;;;;5054276;28;20443;-55
2020/12/30 03:14:22;;;;;;;35.47;16.10;;;2.00;99.90;;;;;;5036435;28;20036;-58
2020/12/30 03:16:48;;;;;;;42.50;16.38;;;2.00;99.90;;;;;;5053968;28;20039;-57
2020/12/30 03:19:14;;;;;;;38.70;16.77;;;1.90;99.90;;;;;;5053071;28;20029;-61
2020/12/30 03:21:40;;;;;;;39.90;16.58;;;1.90;99.90;;;;;;5052743;28;20078;-59
2020/12/30 03:24:06;;;;;;;34.05;15.45;;;1.80;99.90;;;;;;5052784;28;20028;-54
2020/12/30 03:26:33;;;;;;;30.10;14.73;;;1.70;99.90;;;;;;5053025;28;20115;-60
2020/12/30 03:29:02;;;;;;;35.25;16.02;;;1.70;99.90;;;;;;5052310;28;20044;-59
2020/12/30 03:31:30;;;;;;;33.55;15.88;;;1.60;99.90;;;;;;5054103;28;20096;-61
2020/12/30 03:33:57;;;;;;;37.25;15.55;;;1.60;99.90;;;;;;5054208;28;20167;-61
2020/12/30 03:36:23;;;;;;;35.25;16.50;;;1.60;99.90;;;;;;5053959;28;20058;-61
2020/12/30 03:38:48;;;;;;;34.65;16.02;;;1.60;99.90;;;;;;5051768;28;20033;-60
2020/12/30 03:41:15;;;;;;;38.45;17.38;;;1.50;99.90;;;;;;5052524;28;20024;-60
2020/12/30 03:43:40;;;;;;;33.92;16.27;;;1.50;99.90;;;;;;5052730;28;20028;-59
2020/12/30 03:46:06;;;;;;;31.30;14.63;;;1.50;99.90;;;;;;5051466;28;20025;-59
2020/12/30 03:48:32;;;;;;;34.15;16.63;;;1.60;99.90;;;;;;5052025;28;20104;-59
2020/12/30 03:50:57;;;;;;;30.15;13.75;;;1.60;99.90;;;;;;5053484;28;20522;-56
2020/12/30 03:53:23;;;;;;;33.75;15.30;;;1.50;99.90;;;;;;5053203;28;20028;-58
2020/12/30 03:55:49;;;;;;;29.92;14.32;;;1.50;99.90;;;;;;5053217;28;20032;-56
2020/12/30 03:58:17;;;;;;;35.08;15.23;;;1.50;99.90;;;;;;5051812;28;20029;-58
2020/12/30 04:00:43;;;;;;;33.65;15.27;;;1.50;99.90;;;;;;5053236;28;20047;-56
2020/12/30 04:03:08;;;;;;;38.97;16.35;;;1.40;99.90;;;;;;5053193;28;20037;-56
2020/12/30 04:05:34;;;;;;;34.55;16.48;;;1.30;99.90;;;;;;5051801;28;20028;-59
2020/12/30 04:07:59;;;;;;;33.30;15.10;;;1.40;99.90;;;;;;5052841;28;20380;-61
2020/12/30 04:10:25;;;;;;;30.30;15.57;;;1.40;99.90;;;;;;5050899;28;20021;-56
2020/12/30 04:12:51;;;;;;;32.22;15.82;;;1.40;99.90;;;;;;5052185;28;20027;-60
2020/12/30 04:15:17;;;;;;;31.95;13.50;;;1.40;99.90;;;;;;5051781;28;20418;-59
2020/12/30 04:17:43;;;;;;;33.38;15.52;;;1.40;99.90;;;;;;5051253;28;20116;-57
2020/12/30 04:20:09;;;;;;;30.58;13.85;;;1.40;99.90;;;;;;5051154;28;20219;-57
2020/12/30 04:22:34;;;;;;;35.08;16.17;;;1.40;99.90;;;;;;5052822;28;20126;-58
2020/12/30 04:25:00;;;;;;;35.17;15.95;;;1.40;99.90;;;;;;5051321;28;20017;-57
2020/12/30 04:27:27;;;;;;;33.53;15.43;;;1.40;99.90;;;;;;5052636;28;20029;-59
2020/12/30 04:29:52;;;;;;;35.25;16.02;;;1.40;99.90;;;;;;5050248;28;20388;-56
2020/12/30 04:32:19;;;;;;;34.13;14.50;;;1.40;99.90;;;;;;5051270;28;20111;-61
2020/12/30 04:34:45;;;;;;;31.77;15.27;;;1.40;99.90;;;;;;5051890;28;20025;-58
2020/12/30 04:37:12;;;;;;;31.35;15.30;;;1.30;99.90;;;;;;5050929;28;20040;-60
2020/12/30 04:39:38;;;;;;;35.45;14.85;;;1.30;99.90;;;;;;5051591;28;20025;-60
2020/12/30 04:42:04;;;;;;;34.78;16.27;;;1.20;99.90;;;;;;5050970;28;20059;-59
2020/12/30 04:44:32;;;;;;;30.95;15.57;;;1.10;99.90;;;;;;5052240;28;20056;-59
2020/12/30 04:46:59;;;;;;;37.33;16.10;;;0.90;99.90;;;;;;5051048;28;20025;-59
2020/12/30 04:49:26;;;;;;;40.35;17.63;;;1.00;99.90;;;;;;5051891;28;20025;-59
2020/12/30 04:51:55;;;;;;;34.03;16.60;;;1.00;99.90;;;;;;5050889;28;20152;-58
2020/12/30 04:54:23;;;;;;;36.58;15.82;;;1.10;99.90;;;;;;5052284;28;20033;-59
2020/12/30 04:57:02;;;;;;;31.92;15.63;;;1.10;99.90;;;;;;5050922;28;20025;-59
2020/12/30 04:59:29;;;;;;;31.10;14.45;;;1.10;99.90;;;;;;5051406;28;20473;-56
2020/12/30 05:02:20;;;;;;;36.60;15.63;;;1.20;99.90;;;;;;5052675;28;20025;-59
2020/12/30 05:04:46;;;;;;;30.80;14.90;;;1.20;99.90;;;;;;5052065;28;20548;-55
2020/12/30 05:07:13;;;;;;;30.98;14.13;;;1.20;99.90;;;;;;5050331;28;20136;-60
2020/12/30 05:09:40;;;;;;;33.83;15.52;;;1.20;99.90;;;;;;5049900;28;20024;-60
2020/12/30 05:12:19;;;;;;;34.45;16.02;;;1.30;99.90;;;;;;5050837;28;20063;-58
2020/12/30 05:14:46;;;;;;;35.95;16.25;;;1.20;99.90;;;;;;5052009;28;20044;-57
2020/12/30 05:17:14;;;;;;;33.55;15.02;;;1.30;99.90;;;;;;5050294;28;20087;-59
2020/12/30 05:19:40;;;;;;;32.35;15.65;;;1.30;99.90;;;;;;5050072;28;20412;-58
2020/12/30 05:22:15;;;;;;;32.22;15.98;;;1.30;99.90;;;;;;5050379;28;20033;-54
2020/12/30 05:24:43;;;;;;;33.22;15.48;;;1.30;99.90;;;;;;5050477;28;20247;-58
2020/12/30 05:27:11;;;;;;;45.90;22.38;;;1.30;99.90;;;;;;5050312;28;20028;-58
2020/12/30 05:29:40;;;;;;;;;;;1.20;99.90;;;;;;5050123;28;20025;-60
2020/12/30 05:32:07;;;;;;;38.17;16.17;;;1.30;99.90;;;;;;5050304;28;19927;-59
2020/12/30 05:34:34;;;;;;;32.45;15.25;;;1.20;99.90;;;;;;5051587;28;20052;-54
2020/12/30 05:37:00;;;;;;;34.50;17.00;;;1.20;99.90;;;;;;5051422;28;20502;-56
2020/12/30 05:39:30;;;;;;;33.65;17.77;;;1.20;99.90;;;;;;5050812;28;20104;-57
2020/12/30 05:42:16;;;;;;;38.75;16.08;;;1.20;99.90;;;;;;5050169;28;20499;-58
2020/12/30 05:44:47;;;;;;;32.42;17.35;;;1.10;99.90;;;;;;5051448;28;20029;-56
2020/12/30 05:47:17;;;;;;;41.83;18.75;;;1.30;99.90;;;;;;5050060;28;20481;-59
2020/12/30 05:49:44;;;;;;;36.63;17.83;;;1.30;99.90;;;;;;5050623;28;20028;-57
2020/12/30 05:52:20;;;;;;;42.17;20.65;;;1.40;99.90;;;;;;5051498;28;20527;-60
2020/12/30 05:55:09;;;;;;;36.53;18.55;;;1.50;99.90;;;;;;5051716;28;20025;-58
2020/12/30 05:57:36;;;;;;;33.65;17.15;;;1.60;99.90;;;;;;5051521;28;20028;-55
2020/12/30 06:00:13;;;;;;;37.28;17.20;;;1.80;99.90;;;;;;5050923;28;20032;-57
2020/12/30 06:02:43;;;;;;;36.65;16.42;;;1.80;99.90;;;;;;5050025;28;20029;-58
2020/12/30 06:05:10;;;;;;;34.22;16.10;;;1.90;99.90;;;;;;5051259;28;20412;-58
2020/12/30 06:07:37;;;;;;;33.47;15.95;;;1.90;99.90;;;;;;5049771;28;20028;-59
2020/12/30 06:10:05;;;;;;;32.58;14.95;;;2.00;99.90;;;;;;5049598;28;20112;-60
2020/12/30 06:12:37;;;;;;;34.70;17.30;;;2.00;99.90;;;;;;5049923;28;20028;-59
2020/12/30 06:15:03;;;;;;;37.85;16.02;;;2.10;99.90;;;;;;5049869;28;20159;-58
2020/12/30 06:17:30;;;;;;;34.33;16.23;;;2.00;99.90;;;;;;5049756;28;20509;-58
2020/12/30 06:19:57;;;;;;;51.90;16.27;;;2.00;99.90;;;;;;5049464;28;20029;-60
2020/12/30 06:22:24;;;;;;;36.45;14.93;;;2.00;99.90;;;;;;5049837;28;20279;-56
2020/12/30 06:24:55;;;;;;;35.40;17.45;;;2.10;99.90;;;;;;5051174;28;20028;-58
2020/12/30 06:27:23;;;;;;;34.33;16.52;;;2.10;99.90;;;;;;5049564;28;20459;-58
2020/12/30 06:29:52;;;;;;;39.55;16.85;;;2.20;99.90;;;;;;5050619;28;20093;-59
2020/12/30 06:32:30;;;;;;;32.70;16.42;;;2.20;99.90;;;;;;5050858;28;20518;-59
2020/12/30 06:34:56;;;;;;;33.55;17.65;;;2.20;99.90;;;;;;5051201;28;20074;-60
2020/12/30 06:37:26;;;;;;;33.65;15.95;;;2.20;99.90;;;;;;5049732;28;20033;-59
2020/12/30 06:40:17;;;;;;;35.25;16.80;;;2.30;99.90;;;;;;5050330;28;20066;-54
2020/12/30 06:42:44;;;;;;;31.17;15.07;;;2.30;99.90;;;;;;5051021;28;20036;-57
2020/12/30 06:45:14;;;;;;;40.17;15.15;;;2.40;99.90;;;;;;5049707;28;20087;-60
2020/12/30 06:48:02;;;;;;;32.50;16.38;;;2.40;99.90;;;;;;5050648;28;20025;-59
2020/12/30 06:50:28;;;;;;;31.27;16.10;;;2.40;99.90;;;;;;5049064;28;20111;-58
2020/12/30 06:52:53;;;;;;;32.92;15.32;;;2.40;99.90;;;;;;5050986;28;20275;-61
2020/12/30 06:55:45;;;;;;;34.05;15.70;;;2.40;99.90;;;;;;5053262;28;20078;-60
2020/12/30 06:58:46;;;;;;;34.65;14.30;;;2.50;99.90;;;;;;5047268;28;20122;-56
2020/12/30 07:01:21;;;;;;;34.35;16.38;;;2.50;99.90;;;;;;5055212;28;20098;-60
2020/12/30 07:03:48;;;;;;;35.85;16.52;;;2.50;99.90;;;;;;5053399;28;20021;-59
2020/12/30 07:06:31;;;;;;;34.10;16.00;;;2.50;99.90;;;;;;5054629;28;20029;-60
2020/12/30 07:09:05;;;;;;;32.08;15.10;;;2.70;99.90;;;;;;5053823;28;20024;-59
2020/12/30 07:11:41;;;;;;;32.00;14.95;;;2.70;99.90;;;;;;5054160;28;20025;-59
2020/12/30 07:14:10;;;;;;;31.27;15.30;;;2.70;99.90;;;;;;5054159;28;20021;-60
2020/12/30 07:16:36;;;;;;;;;;;2.70;99.90;;;;;;5054104;28;20040;-57
2020/12/30 07:19:09;;;;;;;32.80;16.13;;;2.70;99.90;;;;;;5051393;28;19908;-59
2020/12/30 07:21:50;;;;;;;31.58;14.43;;;2.80;99.90;;;;;;5052169;28;20025;-58
2020/12/30 07:24:25;;;;;;;34.92;15.40;;;2.80;99.90;;;;;;5052537;28;20437;-56
2020/12/30 07:26:53;;;;;;;30.95;15.35;;;2.90;99.90;;;;;;5052174;28;20082;-59
2020/12/30 07:29:19;;;;;;;;;;;2.80;99.90;;;;;;5053415;28;20025;-59
2020/12/30 07:31:54;;;;;;;33.05;15.90;;;2.90;99.90;;;;;;5053457;28;19904;-58
2020/12/30 07:34:25;;;;;;;30.92;14.27;;;2.90;99.90;;;;;;5052105;28;20392;-56
2020/12/30 07:36:54;;;;;;;32.50;15.27;;;3.00;99.90;;;;;;5053503;28;20039;-56
2020/12/30 07:39:37;;;;;;;29.30;14.55;;;2.90;99.90;;;;;;5052676;28;20503;-58
2020/12/30 07:42:04;;;;;;;32.60;13.65;;;3.00;99.90;;;;;;5052185;28;20028;-60
2020/12/30 07:44:32;;;;;;;31.42;13.85;;;3.00;99.90;;;;;;5053377;28;20028;-59
2020/12/30 07:47:04;;;;;;;33.72;15.18;;;3.00;99.90;;;;;;5053547;28;20028;-57
2020/12/30 07:49:30;;;;;;;31.27;13.98;;;3.10;99.90;;;;;;5051435;28;20044;-57
2020/12/30 07:51:58;;;;;;;30.58;15.25;;;3.10;99.90;;;;;;5052081;28;20056;-58
2020/12/30 07:54:24;;;;;;;31.17;14.45;;;3.10;99.90;;;;;;5053276;28;20090;-58
2020/12/30 07:56:59;;;;;;;29.45;13.60;;;3.00;99.90;;;;;;5053150;28;20025;-60
2020/12/30 07:59:25;;;;;;;35.00;14.88;;;3.10;99.90;;;;;;5051316;28;20484;-58
2020/12/30 08:02:13;;;;;;;33.15;13.02;;;3.10;99.90;;;;;;5051704;28;20419;-59
2020/12/30 08:04:41;;;;;;;35.50;14.35;;;3.10;99.90;;;;;;5052392;28;20025;-59
2020/12/30 08:07:15;;;;;;;29.42;13.45;;;3.10;99.90;;;;;;5051229;28;20037;-59
2020/12/30 08:09:43;;;;;;;31.65;15.05;;;3.20;99.90;;;;;;5052200;28;20063;-60
2020/12/30 08:12:13;;;;;;;31.45;13.98;;;3.20;99.90;;;;;;5052858;28;20020;-58
2020/12/30 08:14:41;;;;;;;27.85;12.15;;;3.10;99.90;;;;;;5052932;28;20066;-57
2020/12/30 08:17:14;;;;;;;30.70;13.73;;;3.20;99.90;;;;;;5052488;28;20040;-54
2020/12/30 08:19:52;;;;;;;31.63;14.13;;;3.20;99.90;;;;;;5050710;28;20484;-59
2020/12/30 08:22:18;;;;;;;34.47;14.40;;;3.30;99.90;;;;;;5052619;28;20515;-59
2020/12/30 08:24:46;;;;;;;36.15;16.63;;;3.40;99.90;;;;;;5051173;28;20116;-59
2020/12/30 08:27:13;;;;;;;32.22;14.93;;;3.30;99.90;;;;;;5052444;28;20044;-60
2020/12/30 08:29:41;;;;;;;37.17;17.30;;;3.30;99.90;;;;;;5048551;28;20024;-60
2020/12/30 08:32:38;;;;;;;34.15;16.17;;;3.40;99.90;;;;;;5050803;28;20024;-60
2020/12/30 08:35:07;;;;;;;31.55;15.15;;;3.40;99.90;;;;;;5030268;28;20412;-58
2020/12/30 08:37:39;;;;;;;32.97;15.38;;;3.40;99.90;;;;;;5039478;28;20116;-58
2020/12/30 08:40:05;;;;;;;34.42;14.60;;;3.40;99.90;;;;;;5051623;28;20055;-57
2020/12/30 08:42:52;;;;;;;34.80;16.73;;;3.40;99.90;;;;;;5051274;28;20172;-60
2020/12/30 08:45:28;;;;;;;31.58;15.15;;;3.40;99.90;;;;;;5050635;28;20021;-60
2020/12/30 08:47:59;;;;;;;31.75;15.60;;;3.40;99.90;;;;;;5050430;28;20500;-57
2020/12/30 08:50:26;;;;;;;35.65;15.65;;;3.50;99.90;;;;;;5051467;28;20094;-60
2020/12/30 08:52:53;;;;;;;35.35;15.68;;;3.50;99.90;;;;;;5051904;28;20435;-55
2020/12/30 08:55:19;;;;;;;35.75;15.52;;;3.50;99.90;;;;;;5051602;28;20357;-60
2020/12/30 08:57:46;;;;;;;34.75;14.32;;;3.60;99.90;;;;;;5050341;28;20093;-56
2020/12/30 09:00:18;;;;;;;34.22;16.60;;;3.60;99.90;;;;;;5050118;28;20052;-60
2020/12/30 09:02:48;;;;;;;29.92;14.38;;;3.60;99.90;;;;;;5050355;28;20294;-60
2020/12/30 09:05:26;;;;;;;29.30;15.60;;;3.70;99.90;;;;;;5051702;28;20025;-57
2020/12/30 09:07:51;;;;;;;34.35;15.05;;;3.70;99.90;;;;;;5051345;28;20112;-58
2020/12/30 09:10:17;;;;;;;28.52;14.50;;;3.70;99.90;;;;;;5050827;28;20124;-60
2020/12/30 09:12:43;;;;;;;30.58;16.23;;;3.70;99.90;;;;;;5050373;28;20017;-60
2020/12/30 09:15:08;;;;;;;32.85;15.80;;;3.70;99.90;;;;;;5050482;28;20361;-59
2020/12/30 09:17:35;;;;;;;29.95;14.18;;;3.70;99.90;;;;;;5050795;28;20041;-59
2020/12/30 09:20:15;;;;;;;30.05;14.40;;;3.70;99.90;;;;;;5049584;28;20029;-58
2020/12/30 09:22:42;;;;;;;28.33;13.85;;;3.70;99.90;;;;;;5049946;28;20055;-60
2020/12/30 09:25:22;;;;;;;32.47;16.08;;;3.70;99.90;;;;;;5050282;28;20028;-59
2020/12/30 09:27:48;;;;;;;29.67;13.57;;;3.70;99.90;;;;;;5051252;28;20400;-60
2020/12/30 09:30:19;;;;;;;36.33;15.32;;;3.70;99.90;;;;;;5050844;28;20021;-54
2020/12/30 09:32:46;;;;;;;29.92;13.90;;;3.80;99.90;;;;;;5050117;28;20021;-58
2020/12/30 09:35:17;;;;;;;30.77;14.73;;;3.90;99.90;;;;;;5050275;28;20029;-60
2020/12/30 09:37:56;;;;;;;31.38;15.15;;;3.90;99.90;;;;;;5049955;28;20021;-60
2020/12/30 09:40:22;;;;;;;27.48;13.80;;;3.90;99.90;;;;;;5050899;28;20492;-57
2020/12/30 09:42:49;;;;;;;31.35;13.68;;;4.00;99.90;;;;;;5050012;28;20104;-60
2020/12/30 09:45:19;;;;;;;29.98;15.13;;;4.00;99.90;;;;;;5051149;28;20017;-58
2020/12/30 09:47:44;;;;;;;33.50;15.15;;;4.00;99.90;;;;;;5050925;28;20041;-58
2020/12/30 09:50:17;;;;;;;31.90;15.52;;;4.00;99.90;;;;;;5049349;28;20024;-60
2020/12/30 09:52:44;;;;;;;34.17;16.60;;;3.90;99.90;;;;;;5049710;28;20078;-60
2020/12/30 09:55:11;;;;;;;32.13;15.73;;;3.90;99.90;;;;;;5050748;28;20479;-60
2020/12/30 09:57:37;;;;;;;31.83;14.60;;;4.00;99.90;;;;;;5050634;28;20021;-59
2020/12/30 10:00:08;;;;;;;34.70;14.77;;;4.00;99.90;;;;;;5050408;28;20032;-60
2020/12/30 10:02:33;;;;;;;29.10;12.68;;;4.00;99.90;;;;;;5050819;28;20025;-57
2020/12/30 10:04:59;;;;;;;32.30;15.40;;;4.00;99.90;;;;;;5049462;28;20021;-59
2020/12/30 10:07:26;;;;;;;33.08;14.80;;;4.10;99.90;;;;;;5049575;28;20025;-59
2020/12/30 10:09:56;;;;;;;33.90;14.82;;;4.20;99.90;;;;;;5048949;28;20079;-57
2020/12/30 10:12:22;;;;;;;33.80;14.70;;;4.20;99.90;;;;;;5049564;28;20075;-60
2020/12/30 10:14:49;;;;;;;31.63;14.27;;;4.20;99.90;;;;;;5050754;28;20469;-58
2020/12/30 10:17:14;;;;;;;31.00;14.73;;;4.30;99.90;;;;;;5050594;28;20043;-60
2020/12/30 10:19:40;;;;;;;34.03;13.85;;;4.30;99.90;;;;;;5049720;28;20033;-62
2020/12/30 10:22:07;;;;;;;31.88;15.32;;;4.30;99.90;;;;;;5050589;28;20032;-60
2020/12/30 10:24:33;;;;;;;30.20;15.20;;;4.30;99.90;;;;;;5049736;28;20033;-59
2020/12/30 10:26:59;;;;;;;33.33;14.98;;;4.40;99.90;;;;;;5049109;28;20031;-50
2020/12/30 10:29:28;;;;;;;33.53;15.52;;;4.30;99.90;;;;;;5052131;28;20029;-53
2020/12/30 10:31:54;;;;;;;32.35;15.00;;;4.30;99.90;;;;;;5052868;28;20059;-51
2020/12/30 10:34:20;;;;;;;36.83;14.25;;;4.30;99.90;;;;;;5053244;28;20028;-55
2020/12/30 10:36:46;;;;;;;32.90;17.52;;;4.30;99.90;;;;;;5052977;28;20029;-55
2020/12/30 10:39:11;;;;;;;32.70;15.63;;;4.20;99.90;;;;;;5053317;28;20029;-56
2020/12/30 10:41:37;;;;;;;34.20;17.05;;;4.20;99.90;;;;;;5052509;28;20166;-55
2020/12/30 10:44:03;;;;;;;33.00;14.48;;;4.20;99.90;;;;;;5053724;28;20094;-50
2020/12/30 10:46:29;;;;;;;36.25;16.05;;;4.20;99.90;;;;;;5054070;28;20550;-50
2020/12/30 10:48:54;;;;;;;38.28;16.55;;;4.20;99.90;;;;;;5052320;28;20025;-53
2020/12/30 10:51:20;;;;;;;37.55;16.33;;;4.20;99.90;;;;;;5036688;28;20033;-56
2020/12/30 10:53:45;;;;;;;36.42;17.73;;;4.30;99.90;;;;;;5053173;28;20021;-53
2020/12/30 10:56:13;;;;;;;35.72;17.60;;;4.20;99.90;;;;;;5053806;28;20400;-55
2020/12/30 10:58:39;;;;;;;33.40;15.73;;;4.20;99.90;;;;;;5052295;28;20513;-57
2020/12/30 11:01:12;;;;;;;32.67;15.73;;;4.20;99.90;;;;;;5051845;28;20302;-59
2020/12/30 11:03:39;;;;;;;33.63;14.52;;;4.30;99.90;;;;;;5051066;28;20025;-53
2020/12/30 11:06:05;;;;;;;33.40;15.38;;;4.40;99.90;;;;;;5051712;28;20031;-51
2020/12/30 11:08:32;;;;;;;36.60;18.38;;;4.40;99.90;;;;;;5051611;28;20028;-57
2020/12/30 11:10:59;;;;;;;35.30;15.18;;;4.50;99.90;;;;;;5051868;28;20017;-52
2020/12/30 11:13:25;;;;;;;36.55;15.85;;;4.50;99.90;;;;;;5053585;28;20026;-55
2020/12/30 11:15:51;;;;;;;30.58;15.52;;;4.60;99.90;;;;;;5053709;28;20036;-50
2020/12/30 11:18:17;;;;;;;34.67;16.95;;;4.60;99.90;;;;;;5053681;28;20060;-58
2020/12/30 11:20:43;;;;;;;30.90;15.13;;;4.60;99.90;;;;;;5052358;28;20056;-53
2020/12/30 11:23:09;;;;;;;34.05;15.60;;;4.60;99.90;;;;;;5052287;28;20081;-52
2020/12/30 11:25:35;;;;;;;36.03;16.45;;;4.60;99.90;;;;;;5051624;28;20028;-53
2020/12/30 11:28:02;;;;;;;28.98;14.18;;;4.70;99.90;;;;;;5052988;28;20363;-54
2020/12/30 11:30:28;;;;;;;34.25;15.13;;;4.80;99.90;;;;;;5053148;28;20478;-52
2020/12/30 11:32:54;;;;;;;36.40;16.58;;;4.70;99.90;;;;;;5052194;28;20060;-52
2020/12/30 11:35:19;;;;;;;37.08;16.05;;;4.70;99.90;;;;;;5053455;28;20066;-54
2020/12/30 11:37:45;;;;;;;36.25;15.18;;;4.60;99.90;;;;;;5052895;28;20028;-53
2020/12/30 11:40:11;;;;;;;37.13;17.48;;;4.60;99.90;;;;;;5051649;28;20029;-52
2020/12/30 11:42:36;;;;;;;36.75;18.85;;;4.60;99.90;;;;;;5053226;28;20025;-48
2020/12/30 11:45:03;;;;;;;40.67;20.15;;;4.50;99.90;;;;;;5052012;28;20050;-53
2020/12/30 11:47:30;;;;;;;35.75;16.52;;;4.50;99.90;;;;;;5052998;28;20049;-52
2020/12/30 11:49:55;;;;;;;35.45;18.45;;;4.40;99.90;;;;;;5051298;28;20404;-53
2020/12/30 11:52:21;;;;;;;38.28;18.02;;;4.30;99.90;;;;;;5052023;28;20029;-49
2020/12/30 11:54:47;;;;;;;40.10;20.58;;;4.30;99.90;;;;;;5052097;28;20045;-50
2020/12/30 11:57:13;;;;;;;40.20;18.45;;;4.30;99.90;;;;;;5051770;28;20029;-56
2020/12/30 11:59:38;;;;;;;38.55;18.75;;;4.30;99.90;;;;;;5051162;28;20028;-53
2020/12/30 12:02:04;;;;;;;41.10;19.08;;;4.20;99.90;;;;;;5035119;28;20106;-56
2020/12/30 12:04:31;;;;;;;41.88;23.58;;;4.30;99.90;;;;;;5051684;28;20056;-52
2020/12/30 12:07:01;;;;;;;37.72;20.95;;;4.30;99.90;;;;;;5053157;28;20082;-53
2020/12/30 12:09:28;;;;;;;38.50;19.42;;;4.20;99.90;;;;;;5051901;28;20103;-56
2020/12/30 12:11:55;;;;;;;42.63;20.83;;;4.20;99.90;;;;;;5053034;28;20074;-48
2020/12/30 12:14:21;;;;;;;43.08;22.90;;;4.20;99.90;;;;;;5052987;28;20191;-52
2020/12/30 12:16:55;;;;;;;45.15;20.80;;;4.20;99.90;;;;;;5052678;28;20084;-54
2020/12/30 12:19:21;;;;;;;40.65;22.42;;;4.20;99.90;;;;;;5051301;28;20641;-51
2020/12/30 12:21:46;;;;;;;40.05;22.15;;;4.20;99.90;;;;;;5052012;28;20282;-52
2020/12/30 12:24:13;;;;;;;44.78;23.95;;;4.20;99.90;;;;;;5051276;28;20519;-51
2020/12/30 12:26:39;;;;;;;45.88;25.38;;;4.20;99.90;;;;;;5052283;28;20036;-50
2020/12/30 12:29:37;;;;;;;52.88;24.13;;;4.10;99.90;;;;;;5043927;28;20048;-49
2020/12/30 12:32:04;;;;;;;49.35;23.17;;;4.20;99.90;;;;;;5040336;28;20028;-52
2020/12/30 12:34:29;;;;;;;42.20;22.70;;;4.20;99.90;;;;;;5051285;28;20539;-53
2020/12/30 12:36:55;;;;;;;47.60;22.83;;;4.20;99.90;;;;;;5051198;28;20116;-56
2020/12/30 12:39:21;;;;;;;47.10;26.17;;;4.20;99.90;;;;;;5074736;22;20049;-60
2020/12/30 12:41:53;;;;;;;43.78;21.65;;;4.30;99.90;;;;;;5058305;28;20017;-59
2020/12/30 12:44:19;;;;;;;50.72;22.30;;;4.40;99.90;;;;;;5057577;28;20059;-59